Time;durP1;ratioP1;P1;durP2;ratioP2;P2;SDS_P1;SDS_P2;PMS_P1;PMS_P2;Temp;Humidity;BMP_temperature;BMP_pressure;BME280_temperature;BME280_humidity;BME280_pressure;Samples;Min_cycle;Max_cycle;Signal;HPM_P1;HPM_P2
2021/09/23 00:03:10;;;;;;;;;;;14.70;99.90;;;;;;5090828;28;19923;-50
2021/09/23 00:06:14;;;;;;;;;;;14.60;99.90;;;;;;5090934;28;19927;-50
2021/09/23 00:09:18;;;;;;;;;;;14.60;99.90;;;;;;5091620;28;20298;-50
2021/09/23 00:12:22;;;;;;;;;;;14.60;99.90;;;;;;5090698;28;20293;-51
2021/09/23 00:15:26;;;;;;;;;;;14.60;99.90;;;;;;5091013;28;20448;-51
2021/09/23 00:18:31;;;;;;;;;;;14.60;99.90;;;;;;5091500;28;19927;-52
2021/09/23 00:21:36;;;;;;;;;;;14.50;99.90;;;;;;5090566;28;19920;-50
2021/09/23 00:24:40;;;;;;;;;;;14.50;99.90;;;;;;5090772;28;19919;-52
2021/09/23 00:27:45;;;;;;;;;;;14.50;99.90;;;;;;5091451;28;19927;-50
2021/09/23 00:30:49;;;;;;;;;;;14.50;99.90;;;;;;5090350;28;19927;-51
2021/09/23 00:33:53;;;;;;;;;;;14.50;99.90;;;;;;5090204;28;19935;-51
2021/09/23 00:36:58;;;;;;;;;;;14.50;99.90;;;;;;5091402;28;19935;-51
2021/09/23 00:40:03;;;;;;;;;;;14.40;99.90;;;;;;5090422;28;19943;-50
2021/09/23 00:43:07;;;;;;;;;;;14.40;99.90;;;;;;5089576;28;19927;-50
2021/09/23 00:46:11;;;;;;;;;;;14.60;99.90;;;;;;5090380;28;20239;-50
2021/09/23 00:49:15;;;;;;;;;;;14.50;99.90;;;;;;5089712;28;19943;-50
2021/09/23 00:52:19;;;;;;;;;;;14.60;99.90;;;;;;5089339;28;19939;-54
2021/09/23 00:55:25;;;;;;;;;;;14.50;99.90;;;;;;5078367;28;19922;-49
2021/09/23 00:58:29;;;;;;;;;;;14.40;99.90;;;;;;5090276;28;20294;-50
2021/09/23 01:01:33;;;;;;;;;;;14.40;99.90;;;;;;5089874;28;19919;-50
2021/09/23 01:04:44;;;;;;;;;;;14.30;99.90;;;;;;5089400;28;19919;-50
2021/09/23 01:07:49;;;;;;;;;;;14.30;99.90;;;;;;5089864;28;19927;-55
2021/09/23 01:10:53;;;;;;;;;;;14.30;99.90;;;;;;5088758;28;19923;-50
2021/09/23 01:14:02;;;;;;;;;;;14.30;99.90;;;;;;5089344;28;19919;-52
2021/09/23 01:17:22;;;;;;;;;;;14.40;99.90;;;;;;5080345;28;20144;-50
2021/09/23 01:20:33;;;;;;;;;;;14.40;99.90;;;;;;5089193;28;20432;-50
2021/09/23 01:23:42;;;;;;;;;;;14.30;99.90;;;;;;5088754;28;19919;-51
2021/09/23 01:26:48;;;;;;;;;;;14.20;99.90;;;;;;5089451;28;19927;-51
2021/09/23 01:30:07;;;;;;;;;;;14.20;99.90;;;;;;5089316;28;19927;-50
2021/09/23 01:33:16;;;;;;;;;;;14.10;99.90;;;;;;5088645;28;19934;-50
2021/09/23 01:36:20;;;;;;;;;;;14.10;99.90;;;;;;5088443;28;19923;-50
2021/09/23 01:39:26;;;;;;;;;;;14.10;99.90;;;;;;5069345;28;20030;-50
2021/09/23 01:42:35;;;;;;;;;;;14.00;99.90;;;;;;5088053;28;19919;-49
2021/09/23 01:45:40;;;;;;;;;;;14.00;99.90;;;;;;5087732;28;20433;-50
2021/09/23 01:48:44;;;;;;;;;;;14.00;99.90;;;;;;5090250;28;19923;-50
2021/09/23 01:51:49;;;;;;;;;;;14.00;99.90;;;;;;5088329;28;20844;-51
2021/09/23 01:54:53;;;;;;;;;;;14.00;99.90;;;;;;5085921;28;19943;-51
2021/09/23 01:57:58;;;;;;;;;;;14.00;99.90;;;;;;5097554;28;19923;-50
2021/09/23 02:01:03;;;;;;;;;;;14.00;99.90;;;;;;5088164;28;20401;-51
2021/09/23 02:04:08;;;;;;;;;;;13.80;99.90;;;;;;5087687;28;20018;-50
2021/09/23 02:07:18;;;;;;;;;;;13.70;99.90;;;;;;5088301;28;19923;-50
2021/09/23 02:10:47;;;;;;;;;;;13.70;99.90;;;;;;5090062;28;19969;-50
2021/09/23 02:13:52;;;;;;;;;;;13.80;99.90;;;;;;5087814;28;19935;-49
2021/09/23 02:16:56;;;;;;;;;;;14.00;99.90;;;;;;5087839;28;20394;-50
2021/09/23 02:20:21;;;;;;;;;;;14.00;99.90;;;;;;5088689;28;19943;-49
2021/09/23 02:23:27;;;;;;;;;;;14.00;99.90;;;;;;5088204;28;19927;-51
2021/09/23 02:26:37;;;;;;;;;;;14.00;99.90;;;;;;5087378;28;19927;-52
2021/09/23 02:29:41;;;;;;;;;;;14.00;99.90;;;;;;5092515;28;20345;-51
2021/09/23 02:32:45;;;;;;;;;;;14.00;99.90;;;;;;5093315;28;19920;-51
2021/09/23 02:35:49;;;;;;;;;;;14.00;99.90;;;;;;5091864;28;19923;-50
2021/09/23 02:38:53;;;;;;;;;;;14.00;99.90;;;;;;5092586;28;19919;-50
2021/09/23 02:41:57;;;;;;;;;;;14.00;99.90;;;;;;5092455;28;19919;-51
2021/09/23 02:45:02;;;;;;;;;;;13.90;99.90;;;;;;5091358;28;19924;-51
2021/09/23 02:48:06;;;;;;;;;;;14.00;99.90;;;;;;5091414;28;20441;-50
2021/09/23 02:51:10;;;;;;;;;;;13.90;99.90;;;;;;5080786;28;19919;-56
2021/09/23 02:54:27;;;;;;;;;;;13.90;99.90;;;;;;5091140;28;19923;-51
2021/09/23 02:57:52;;;;;;;;;;;13.90;99.90;;;;;;5092424;28;19923;-51
2021/09/23 03:00:55;;;;;;;;;;;13.80;99.90;;;;;;5091822;28;19923;-50
2021/09/23 03:03:59;;;;;;;;;;;13.80;99.90;;;;;;5092660;28;19990;-50
2021/09/23 03:07:03;;;;;;;;;;;13.70;99.90;;;;;;5090932;28;19938;-49
2021/09/23 03:10:08;;;;;;;;;;;13.80;99.90;;;;;;5091975;28;20293;-51
2021/09/23 03:13:12;;;;;;;;;;;13.70;99.90;;;;;;5092569;28;20393;-50
2021/09/23 03:16:16;;;;;;;;;;;13.70;99.90;;;;;;5090901;28;20282;-49
2021/09/23 03:19:19;;;;;;;;;;;13.60;99.90;;;;;;5091872;28;20291;-51
2021/09/23 03:22:24;;;;;;;;;;;13.60;99.90;;;;;;5092070;28;19916;-50
2021/09/23 03:25:28;;;;;;;;;;;13.50;99.90;;;;;;5090530;28;19919;-50
2021/09/23 03:28:33;;;;;;;;;;;13.50;99.90;;;;;;5091924;28;19923;-51
2021/09/23 03:31:37;;;;;;;;;;;13.50;99.90;;;;;;5092938;28;20246;-50
2021/09/23 03:34:41;;;;;;;;;;;13.50;99.90;;;;;;5091975;28;19923;-50
2021/09/23 03:38:10;;;;;;;;;;;13.50;99.90;;;;;;5090865;28;19924;-50
2021/09/23 03:41:14;;;;;;;;;;;13.30;99.90;;;;;;5091727;28;19919;-52
2021/09/23 03:44:19;;;;;;;;;;;13.30;99.90;;;;;;5092387;28;19922;-50
2021/09/23 03:47:23;;;;;;;;;;;13.30;99.90;;;;;;5090278;28;19927;-49
2021/09/23 03:50:27;;;;;;;;;;;13.20;99.90;;;;;;5090807;28;19931;-52
2021/09/23 03:53:31;;;;;;;;;;;13.20;99.90;;;;;;5091487;28;19923;-52
2021/09/23 03:56:35;;;;;;;;;;;13.20;99.90;;;;;;5089554;28;20213;-50
2021/09/23 03:59:39;;;;;;;;;;;13.20;99.90;;;;;;5090496;28;19931;-53
2021/09/23 04:02:44;;;;;;;;;;;13.10;99.90;;;;;;5091763;28;19923;-50
2021/09/23 04:05:48;;;;;;;;;;;13.10;99.90;;;;;;5087867;28;19923;-49
2021/09/23 04:08:52;;;;;;;;;;;13.10;99.90;;;;;;5090125;28;20003;-51
2021/09/23 04:11:56;;;;;;;;;;;13.10;99.90;;;;;;5090818;28;19923;-51
2021/09/23 04:15:02;;;;;;;;;;;13.00;99.90;;;;;;5090101;28;19919;-51
2021/09/23 04:18:07;;;;;;;;;;;13.00;99.90;;;;;;5089853;28;19939;-49
2021/09/23 04:21:10;;;;;;;;;;;12.90;99.90;;;;;;5090958;28;19920;-50
2021/09/23 04:24:15;;;;;;;;;;;12.90;99.90;;;;;;5090300;28;19920;-51
2021/09/23 04:27:20;;;;;;;;;;;12.90;99.90;;;;;;5089461;28;19927;-51
2021/09/23 04:30:25;;;;;;;;;;;12.80;99.90;;;;;;5090712;28;19919;-51
2021/09/23 04:33:29;;;;;;;;;;;12.80;99.90;;;;;;5090405;28;20385;-49
2021/09/23 04:36:35;;;;;;;;;;;12.80;99.90;;;;;;5089160;28;19923;-51
2021/09/23 04:39:39;;;;;;;;;;;12.80;99.90;;;;;;5090196;28;19939;-51
2021/09/23 04:42:43;;;;;;;;;;;12.80;99.90;;;;;;5090021;28;19927;-49
2021/09/23 04:45:47;;;;;;;;;;;12.80;99.90;;;;;;5088836;28;19919;-50
2021/09/23 04:48:52;;;;;;;;;;;12.80;99.90;;;;;;5089524;28;19927;-51
2021/09/23 04:51:57;;;;;;;;;;;12.80;99.90;;;;;;5089796;28;19927;-51
2021/09/23 04:55:01;;;;;;;;;;;12.80;99.90;;;;;;5088741;28;20389;-51
2021/09/23 04:58:06;;;;;;;;;;;12.80;99.90;;;;;;5089484;28;20010;-50
2021/09/23 05:01:10;;;;;;;;;;;12.80;99.90;;;;;;5090138;28;19920;-51
2021/09/23 05:04:15;;;;;;;;;;;12.80;99.90;;;;;;5088021;28;19923;-54
2021/09/23 05:07:19;;;;;;;;;;;12.80;99.90;;;;;;5083998;28;19923;-49
2021/09/23 05:10:24;;;;;;;;;;;12.90;99.90;;;;;;5083037;28;20413;-49
2021/09/23 05:13:28;;;;;;;;;;;12.90;99.90;;;;;;5086633;28;19919;-50
2021/09/23 05:16:32;;;;;;;;;;;12.90;99.90;;;;;;5081642;28;19924;-49
2021/09/23 05:19:36;;;;;;;;;;;12.90;99.90;;;;;;5069132;28;19923;-51
2021/09/23 05:22:41;;;;;;;;;;;12.90;99.90;;;;;;5074067;28;19919;-51
2021/09/23 05:25:44;;;;;;;;;;;13.00;99.90;;;;;;5081547;28;19962;-51
2021/09/23 05:28:48;;;;;;;;;;;13.10;99.90;;;;;;5090076;28;19923;-49
2021/09/23 05:31:52;;;;;;;;;;;13.10;99.90;;;;;;5074762;28;19935;-50
2021/09/23 05:34:56;;;;;;;;;;;13.30;99.90;;;;;;5081907;28;19935;-52
2021/09/23 05:38:00;;;;;;;;;;;13.40;99.90;;;;;;5082092;28;19955;-51
2021/09/23 05:41:04;;;;;;;;;;;13.60;99.90;;;;;;5090027;28;19923;-55
2021/09/23 05:44:08;;;;;;;;;;;13.60;99.90;;;;;;5088277;28;20385;-54
2021/09/23 05:47:15;;;;;;;;;;;13.70;99.90;;;;;;5088751;28;19923;-52
2021/09/23 05:50:19;;;;;;;;;;;13.80;99.90;;;;;;5090123;28;19919;-52
2021/09/23 05:53:23;;;;;;;;;;;14.90;99.90;;;;;;5086377;28;19927;-55
2021/09/23 05:56:29;;;;;;;;;;;18.30;99.90;;;;;;5085303;28;19928;-51
2021/09/23 05:59:34;;;;;;;;;;;21.40;99.90;;;;;;5067653;28;19920;-50
2021/09/23 06:02:39;;;;;;;;;;;24.00;96.20;;;;;;5086362;28;19924;-51
2021/09/23 06:05:43;;;;;;;;;;;25.40;91.30;;;;;;5079241;28;20314;-51
2021/09/23 06:08:47;;;;;;;;;;;26.50;88.30;;;;;;5072385;28;19924;-51
2021/09/23 06:11:51;;;;;;;;;;;25.30;86.30;;;;;;5077686;28;19923;-52
2021/09/23 06:14:55;;;;;;;;;;;27.10;85.80;;;;;;5073988;28;19924;-51
2021/09/23 06:17:59;;;;;;;;;;;26.90;83.30;;;;;;5069479;28;19920;-52
2021/09/23 06:21:04;;;;;;;;;;;27.00;81.30;;;;;;5071142;28;20255;-51
2021/09/23 06:24:09;;;;;;;;;;;26.10;83.30;;;;;;5075512;28;19931;-51
2021/09/23 06:27:13;;;;;;;;;;;26.80;81.60;;;;;;5087528;28;19939;-50
2021/09/23 06:30:18;;;;;;;;;;;26.90;80.60;;;;;;5084571;28;20286;-51
2021/09/23 06:33:21;;;;;;;;;;;26.90;80.30;;;;;;5087959;28;19923;-53
2021/09/23 06:36:25;;;;;;;;;;;26.80;80.90;;;;;;5082083;28;19919;-51
2021/09/23 06:39:31;;;;;;;;;;;27.60;79.40;;;;;;5070106;28;19946;-51
2021/09/23 06:42:34;;;;;;;;;;;28.10;78.50;;;;;;5075472;28;19920;-55
2021/09/23 06:45:39;;;;;;;;;;;29.30;75.00;;;;;;5074319;28;19962;-51
2021/09/23 06:48:43;;;;;;;;;;;28.50;76.00;;;;;;5088952;28;19923;-51
2021/09/23 06:51:47;;;;;;;;;;;29.20;74.10;;;;;;5077581;28;19919;-52
2021/09/23 06:54:51;;;;;;;;;;;29.90;73.60;;;;;;5086492;28;19919;-49
2021/09/23 06:57:55;;;;;;;;;;;29.50;71.40;;;;;;5069635;28;19920;-53
2021/09/23 07:01:17;;;;;;;;;;;29.50;72.60;;;;;;5088405;28;19923;-51
2021/09/23 07:04:44;;;;;;;;;;;29.60;70.70;;;;;;5084287;28;19928;-51
2021/09/23 07:07:58;;;;;;;;;;;27.70;73.30;;;;;;5087886;28;20507;-51
2021/09/23 07:11:03;;;;;;;;;;;28.40;70.80;;;;;;5088191;28;19939;-55
2021/09/23 07:14:07;;;;;;;;;;;26.40;71.50;;;;;;5086517;28;20013;-52
2021/09/23 07:17:11;;;;;;;;;;;27.60;72.50;;;;;;5092113;28;19919;-49
2021/09/23 07:20:17;;;;;;;;;;;29.50;70.60;;;;;;5092496;28;19923;-52
2021/09/23 07:23:22;;;;;;;;;;;31.10;68.70;;;;;;5083930;28;19935;-50
2021/09/23 07:26:25;;;;;;;;;;;31.80;67.70;;;;;;5091867;28;19919;-51
2021/09/23 07:29:30;;;;;;;;;;;31.70;66.70;;;;;;5074390;28;19927;-52
2021/09/23 07:32:34;;;;;;;;;;;32.10;65.90;;;;;;5076844;28;19919;-52
2021/09/23 07:35:38;;;;;;;;;;;30.50;66.90;;;;;;5083469;28;19926;-54
2021/09/23 07:38:42;;;;;;;;;;;31.20;65.30;;;;;;5074076;28;19927;-52
2021/09/23 07:41:46;;;;;;;;;;;29.30;66.90;;;;;;5092759;28;19920;-51
2021/09/23 07:44:50;;;;;;;;;;;30.90;66.20;;;;;;5082455;28;19919;-51
2021/09/23 07:47:55;;;;;;;;;;;29.70;67.10;;;;;;5078886;28;19935;-54
2021/09/23 07:50:59;;;;;;;;;;;28.80;66.70;;;;;;5089592;28;20471;-51
2021/09/23 07:54:03;;;;;;;;;;;30.10;67.60;;;;;;5086164;28;20412;-51
2021/09/23 07:57:11;;;;;;;;;;;30.10;65.30;;;;;;5087106;28;20385;-51
2021/09/23 08:00:15;;;;;;;;;;;32.70;64.80;;;;;;5072984;28;19931;-56
2021/09/23 08:03:22;;;;;;;;;;;30.60;63.60;;;;;;5085112;28;20298;-53
2021/09/23 08:06:29;;;;;;;;;;;31.40;65.10;;;;;;5077120;28;19927;-51
2021/09/23 08:09:36;;;;;;;;;;;33.80;63.40;;;;;;5081496;28;19953;-51
2021/09/23 08:12:40;;;;;;;;;;;35.20;61.20;;;;;;5073280;28;19931;-52
2021/09/23 08:15:45;;;;;;;;;;;36.20;60.50;;;;;;5082703;28;19920;-53
2021/09/23 08:19:10;;;;;;;;;;;37.10;59.20;;;;;;5088721;28;20393;-52
2021/09/23 08:22:23;;;;;;;;;;;36.80;57.70;;;;;;5078256;28;19923;-51
2021/09/23 08:25:27;;;;;;;;;;;37.60;57.50;;;;;;5082071;28;19919;-51
2021/09/23 08:28:34;;;;;;;;;;;38.20;57.50;;;;;;5070455;28;19958;-52
2021/09/23 08:31:40;;;;;;;;;;;38.10;56.90;;;;;;5082388;28;19924;-55
2021/09/23 08:34:44;;;;;;;;;;;38.20;55.80;;;;;;5079171;28;20405;-52
2021/09/23 08:37:48;;;;;;;;;;;37.80;55.90;;;;;;5072956;28;19919;-55
2021/09/23 08:40:52;;;;;;;;;;;38.90;55.80;;;;;;5070355;28;19927;-52
2021/09/23 08:43:56;;;;;;;;;;;40.00;55.00;;;;;;5074081;28;19920;-50
2021/09/23 08:47:03;;;;;;;;;;;40.90;53.90;;;;;;5076038;28;19928;-51
2021/09/23 08:50:11;;;;;;;;;;;41.20;53.30;;;;;;5073331;28;20302;-52
2021/09/23 08:53:18;;;;;;;;;;;41.50;52.20;;;;;;5072843;28;19927;-52
2021/09/23 08:56:23;;;;;;;;;;;41.70;52.20;;;;;;5073377;28;19924;-52
2021/09/23 08:59:30;;;;;;;;;;;42.40;51.50;;;;;;5071941;28;20267;-54
2021/09/23 09:02:35;;;;;;;;;;;43.10;50.90;;;;;;5069753;28;19919;-54
2021/09/23 09:05:56;;;;;;;;;;;43.50;50.40;;;;;;5085971;28;19927;-55
2021/09/23 09:09:17;;;;;;;;;;;44.20;49.80;;;;;;5077589;28;20301;-51
2021/09/23 09:12:21;;;;;;;;;;;43.80;49.70;;;;;;5089572;28;19934;-53
2021/09/23 09:15:30;;;;;;;;;;;43.80;49.50;;;;;;5086220;28;19939;-56
2021/09/23 09:18:34;;;;;;;;;;;43.50;49.20;;;;;;5081150;28;19920;-52
2021/09/23 09:21:39;;;;;;;;;;;43.30;49.50;;;;;;5072649;28;20401;-55
2021/09/23 09:24:56;;;;;;;;;;;42.00;49.40;;;;;;5089579;28;19919;-53
2021/09/23 09:28:00;;;;;;;;;;;38.40;52.00;;;;;;5078951;28;19923;-51
2021/09/23 09:31:05;;;;;;;;;;;35.80;53.60;;;;;;5079204;28;19919;-54
2021/09/23 09:34:09;;;;;;;;;;;35.80;54.80;;;;;;5082484;28;20287;-53
2021/09/23 09:37:38;;;;;;;;;;;37.00;54.50;;;;;;5074933;28;19919;-54
2021/09/23 09:40:43;;;;;;;;;;;35.80;52.60;;;;;;5075954;28;20310;-51
2021/09/23 09:43:49;;;;;;;;;;;36.40;54.00;;;;;;5069935;28;19934;-51
2021/09/23 09:46:53;;;;;;;;;;;39.40;53.50;;;;;;5063315;28;19924;-53
2021/09/23 09:49:58;;;;;;;;;;;42.50;51.10;;;;;;5073798;28;20302;-52
2021/09/23 09:53:04;;;;;;;;;;;35.80;53.00;;;;;;5072145;28;19931;-55
2021/09/23 09:56:21;;;;;;;;;;;38.00;53.60;;;;;;5080802;28;19920;-55
2021/09/23 09:59:25;;;;;;;;;;;40.00;53.10;;;;;;5068339;28;19924;-51
2021/09/23 10:02:33;;;;;;;;;;;35.50;52.60;;;;;;5074752;28;19940;-55
2021/09/23 10:05:37;;;;;;;;;;;39.10;52.60;;;;;;5069354;28;20298;-54
2021/09/23 10:08:42;;;;;;;;;;;40.00;51.20;;;;;;5086662;28;19938;-55
2021/09/23 10:11:48;;;;;;;;;;;39.80;51.40;;;;;;5087453;28;19919;-54
2021/09/23 10:14:56;;;;;;;;;;;35.50;54.00;;;;;;5069439;28;20406;-52
2021/09/23 10:18:03;;;;;;;;;;;37.70;52.80;;;;;;5071720;28;19923;-53
2021/09/23 10:21:10;;;;;;;;;;;40.20;51.40;;;;;;5077754;28;19920;-55
2021/09/23 10:24:14;;;;;;;;;;;41.80;50.00;;;;;;5068742;28;19947;-56
2021/09/23 10:30:43;;;;;;;;;;;38.50;50.20;;;;;;5083947;28;19920;-52
2021/09/23 10:33:52;;;;;;;;;;;33.60;54.80;;;;;;5073916;28;19919;-53
2021/09/23 10:36:56;;;;;;;;;;;32.50;56.10;;;;;;5076180;28;19921;-56
2021/09/23 10:40:01;;;;;;;;;;;34.90;54.10;;;;;;5087856;28;19923;-54
2021/09/23 10:43:14;;;;;;;;;;;36.20;53.40;;;;;;5077068;28;20298;-55
2021/09/23 10:46:23;;;;;;;;;;;35.20;53.50;;;;;;5074721;28;19920;-56
2021/09/23 10:49:28;;;;;;;;;;;34.10;54.00;;;;;;5076926;28;20405;-56
2021/09/23 10:52:34;;;;;;;;;;;33.30;53.70;;;;;;5082032;28;19938;-54
2021/09/23 10:55:39;;;;;;;;;;;32.30;54.70;;;;;;5091844;28;19927;-56
2021/09/23 10:58:46;;;;;;;;;;;33.50;55.70;;;;;;5077796;28;19923;-52
2021/09/23 11:01:51;;;;;;;;;;;36.90;53.30;;;;;;5080891;28;19919;-56
2021/09/23 11:04:55;;;;;;;;;;;39.50;50.90;;;;;;5077629;28;19927;-53
2021/09/23 11:08:00;;;;;;;;;;;37.70;50.30;;;;;;5081877;28;19924;-53
2021/09/23 11:11:05;;;;;;;;;;;34.40;53.90;;;;;;5072901;28;20282;-54
2021/09/23 11:14:10;;;;;;;;;;;31.50;56.40;;;;;;5087665;28;19918;-55
2021/09/23 11:17:15;;;;;;;;;;;30.80;58.70;;;;;;5075633;28;19924;-56
2021/09/23 11:20:22;;;;;;;;;;;30.50;58.30;;;;;;5079081;28;19939;-52
2021/09/23 11:23:28;;;;;;;;;;;34.20;55.70;;;;;;5077487;28;20567;-57
2021/09/23 11:26:32;;;;;;;;;;;35.50;53.30;;;;;;5082498;28;19924;-56
2021/09/23 11:29:36;;;;;;;;;;;34.60;53.60;;;;;;5073082;28;19927;-55
2021/09/23 11:32:55;;;;;;;;;;;32.20;56.80;;;;;;5080393;28;20119;-51
2021/09/23 11:35:59;;;;;;;;;;;32.00;56.20;;;;;;5085138;28;20429;-56
2021/09/23 11:39:03;;;;;;;;;;;32.60;55.80;;;;;;5071665;28;20390;-53
2021/09/23 11:42:11;;;;;;;;;;;33.10;55.00;;;;;;5083485;28;19923;-53
2021/09/23 11:45:16;;;;;;;;;;;32.10;55.30;;;;;;5081535;28;19932;-53
2021/09/23 11:48:24;;;;;;;;;;;32.50;57.00;;;;;;5074607;28;20038;-57
2021/09/23 11:51:29;;;;;;;;;;;34.40;54.90;;;;;;5078768;28;19924;-56
2021/09/23 11:54:35;;;;;;;;;;;33.70;54.20;;;;;;5086755;28;19927;-54
2021/09/23 11:57:38;;;;;;;;;;;32.40;54.10;;;;;;5082891;28;19920;-57
2021/09/23 12:00:48;;;;;;;;;;;35.50;53.40;;;;;;5073831;28;19919;-53
2021/09/23 12:03:52;;;;;;;;;;;34.80;52.30;;;;;;5080167;28;19919;-52
2021/09/23 12:07:03;;;;;;;;;;;35.10;53.20;;;;;;5075878;28;19924;-55
2021/09/23 12:10:14;;;;;;;;;;;33.90;54.50;;;;;;5076134;28;19927;-55
2021/09/23 12:13:36;;;;;;;;;;;31.30;55.60;;;;;;5074023;28;19946;-55
2021/09/23 12:16:41;;;;;;;;;;;29.70;58.00;;;;;;5073219;28;19920;-52
2021/09/23 12:20:11;;;;;;;;;;;32.10;56.50;;;;;;5072366;28;19939;-54
2021/09/23 12:23:19;;;;;;;;;;;32.80;55.60;;;;;;5072172;28;19919;-55
2021/09/23 12:26:23;;;;;;;;;;;35.30;54.20;;;;;;5078296;28;19927;-56
2021/09/23 12:29:27;;;;;;;;;;;36.10;53.30;;;;;;5074883;28;19935;-55
2021/09/23 12:32:34;;;;;;;;;;;34.40;54.30;;;;;;5075642;28;20675;-52
2021/09/23 12:35:40;;;;;;;;;;;34.70;53.70;;;;;;5064734;28;19920;-53
2021/09/23 12:38:45;;;;;;;;;;;35.00;53.20;;;;;;5088846;28;20412;-57
2021/09/23 12:42:00;;;;;;;;;;;33.90;54.30;;;;;;5082111;28;19919;-54
2021/09/23 12:45:06;;;;;;;;;;;31.80;55.10;;;;;;5072494;28;19923;-56
2021/09/23 12:48:14;;;;;;;;;;;34.50;54.10;;;;;;5072932;28;19931;-53
2021/09/23 12:51:34;;;;;;;;;;;32.80;55.20;;;;;;5076398;28;19924;-57
2021/09/23 12:54:53;;;;;;;;;;;32.00;55.70;;;;;;5078681;28;19936;-54
2021/09/23 12:57:59;;;;;;;;;;;31.60;56.30;;;;;;5075959;28;19919;-55
2021/09/23 13:01:18;;;;;;;;;;;33.60;55.40;;;;;;5081459;28;19920;-55
2021/09/23 13:04:24;;;;;;;;;;;35.40;53.40;;;;;;5077355;28;19919;-52
2021/09/23 13:07:29;;;;;;;;;;;35.30;52.50;;;;;;5079344;28;19931;-56
2021/09/23 13:10:33;;;;;;;;;;;35.90;52.10;;;;;;5077777;28;19923;-56
2021/09/23 13:13:38;;;;;;;;;;;35.30;52.50;;;;;;5073756;28;20298;-55
2021/09/23 13:17:02;;;;;;;;;;;34.00;53.90;;;;;;5075132;28;19924;-52
2021/09/23 13:20:19;;;;;;;;;;;32.00;54.40;;;;;;5073773;28;19924;-57
2021/09/23 13:23:46;;;;;;;;;;;32.90;54.80;;;;;;5084028;28;19919;-55
2021/09/23 13:26:57;;;;;;;;;;;32.70;54.70;;;;;;5073487;28;19923;-56
2021/09/23 13:30:03;;;;;;;;;;;34.30;52.90;;;;;;5079034;28;20318;-56
2021/09/23 13:33:10;;;;;;;;;;;34.10;53.90;;;;;;5076759;28;19919;-56
2021/09/23 13:36:16;;;;;;;;;;;33.30;53.90;;;;;;5065284;28;19919;-56
2021/09/23 13:39:22;;;;;;;;;;;32.30;55.30;;;;;;5086903;28;19920;-53
2021/09/23 13:42:27;;;;;;;;;;;33.20;54.30;;;;;;5078000;28;19919;-53
2021/09/23 13:45:46;;;;;;;;;;;35.70;53.10;;;;;;5085598;28;20290;-55
2021/09/23 13:48:50;;;;;;;;;;;33.90;53.30;;;;;;5088174;28;20409;-56
2021/09/23 13:51:54;;;;;;;;;;;35.10;52.70;;;;;;5080838;28;19919;-58
2021/09/23 13:54:58;;;;;;;;;;;36.90;51.90;;;;;;5088553;28;19942;-53
2021/09/23 13:58:05;;;;;;;;;;;35.80;51.00;;;;;;5080655;28;19923;-56
2021/09/23 14:01:10;;;;;;;;;;;33.30;53.10;;;;;;5083054;28;19938;-56
2021/09/23 14:04:14;;;;;;;;;;;33.90;53.00;;;;;;5083036;28;19928;-55
2021/09/23 14:07:22;;;;;;;;;;;33.80;53.60;;;;;;5089191;28;19939;-56
2021/09/23 14:10:26;;;;;;;;;;;33.90;53.10;;;;;;5087734;28;19923;-56
2021/09/23 14:13:42;;;;;;;;;;;34.40;52.80;;;;;;5088449;28;20389;-56
2021/09/23 14:16:46;;;;;;;;;;;34.40;52.90;;;;;;5069762;28;19935;-55
2021/09/23 14:19:50;;;;;;;;;;;33.60;53.40;;;;;;5076745;28;20294;-55
2021/09/23 14:22:55;;;;;;;;;;;33.80;53.50;;;;;;5087093;28;19919;-55
2021/09/23 14:26:00;;;;;;;;;;;33.50;53.40;;;;;;5092897;28;20014;-56
2021/09/23 14:29:04;;;;;;;;;;;33.60;53.40;;;;;;5080093;28;19924;-55
2021/09/23 14:32:22;;;;;;;;;;;34.10;53.20;;;;;;5064604;28;19927;-55
2021/09/23 14:35:26;;;;;;;;;;;34.50;53.20;;;;;;5090750;28;19923;-56
2021/09/23 14:38:30;;;;;;;;;;;33.90;52.90;;;;;;5088575;28;19920;-55
2021/09/23 14:41:34;;;;;;;;;;;32.70;53.60;;;;;;5075758;28;19923;-52
2021/09/23 14:44:40;;;;;;;;;;;31.70;54.50;;;;;;5076370;28;19923;-56
2021/09/23 14:47:44;;;;;;;;;;;31.00;54.90;;;;;;5093474;28;19970;-56
2021/09/23 14:50:49;;;;;;;;;;;30.60;54.80;;;;;;5085864;28;19923;-51
2021/09/23 14:53:53;;;;;;;;;;;30.40;56.10;;;;;;5077766;28;19955;-55
2021/09/23 14:56:57;;;;;;;;;;;30.70;56.20;;;;;;5084201;28;19920;-56
2021/09/23 15:00:02;;;;;;;;;;;30.30;55.80;;;;;;5090681;28;19923;-52
2021/09/23 15:03:06;;;;;;;;;;;30.00;55.80;;;;;;5080363;28;20297;-56
2021/09/23 15:06:11;;;;;;;;;;;29.40;56.70;;;;;;5085867;28;20389;-56
2021/09/23 15:09:15;;;;;;;;;;;28.90;57.20;;;;;;5090319;28;20313;-55
2021/09/23 15:12:20;;;;;;;;;;;29.30;56.50;;;;;;5091709;28;19919;-56
2021/09/23 15:15:24;;;;;;;;;;;28.70;57.20;;;;;;5092890;28;19943;-56
2021/09/23 15:18:28;;;;;;;;;;;28.20;58.10;;;;;;5092391;28;19931;-52
2021/09/23 15:21:32;;;;;;;;;;;28.40;58.40;;;;;;5091672;28;20306;-56
2021/09/23 15:24:37;;;;;;;;;;;28.30;58.20;;;;;;5092387;28;19919;-54
2021/09/23 15:27:43;;;;;;;;;;;28.60;58.20;;;;;;5093086;28;19923;-52
2021/09/23 15:30:47;;;;;;;;;;;28.30;57.40;;;;;;5091298;28;19931;-50
2021/09/23 15:33:51;;;;;;;;;;;28.40;58.00;;;;;;5091605;28;19927;-51
2021/09/23 15:36:55;;;;;;;;;;;28.20;58.70;;;;;;5092567;28;19923;-50
2021/09/23 15:39:59;;;;;;;;;;;28.50;58.40;;;;;;5091398;28;19919;-49
2021/09/23 15:43:04;;;;;;;;;;;28.50;58.00;;;;;;5091512;28;19923;-49
2021/09/23 15:46:08;;;;;;;;;;;28.00;58.30;;;;;;5092164;28;19919;-49
2021/09/23 15:49:12;;;;;;;;;;;27.40;58.80;;;;;;5091263;28;20328;-50
2021/09/23 15:52:18;;;;;;;;;;;27.50;59.90;;;;;;5091222;28;20393;-49
2021/09/23 15:55:22;;;;;;;;;;;27.30;58.80;;;;;;5092396;28;19919;-50
2021/09/23 15:58:26;;;;;;;;;;;27.50;58.90;;;;;;5090614;28;19923;-49
2021/09/23 16:01:30;;;;;;;;;;;27.00;59.30;;;;;;5090992;28;19919;-49
2021/09/23 16:04:34;;;;;;;;;;;26.90;59.50;;;;;;5092219;28;19924;-50
2021/09/23 16:07:38;;;;;;;;;;;26.40;60.30;;;;;;5091891;28;19923;-50
2021/09/23 16:10:43;;;;;;;;;;;26.30;60.80;;;;;;5090620;28;19923;-49
2021/09/23 16:13:47;;;;;;;;;;;25.90;60.90;;;;;;5092422;28;19919;-52
2021/09/23 16:16:51;;;;;;;;;;;25.50;61.60;;;;;;5092067;28;20353;-50
2021/09/23 16:19:56;;;;;;;;;;;25.70;62.60;;;;;;5091014;28;19919;-52
2021/09/23 16:23:00;;;;;;;;;;;25.70;62.80;;;;;;5090816;28;19919;-52
2021/09/23 16:26:04;;;;;;;;;;;25.40;63.70;;;;;;5092101;28;19919;-52
2021/09/23 16:29:08;;;;;;;;;;;25.30;64.00;;;;;;5089862;28;20405;-51
2021/09/23 16:32:12;;;;;;;;;;;25.00;64.00;;;;;;5091099;28;20401;-51
2021/09/23 16:35:16;;;;;;;;;;;24.80;64.80;;;;;;5091688;28;19939;-51
2021/09/23 16:38:22;;;;;;;;;;;24.70;65.10;;;;;;5097947;22;19911;-48
2021/09/23 16:41:26;;;;;;;;;;;24.70;65.30;;;;;;5010090;28;19925;-54
2021/09/23 16:44:30;;;;;;;;;;;24.60;65.50;;;;;;5011545;28;19932;-47
2021/09/23 16:47:34;;;;;;;;;;;24.50;65.70;;;;;;5010296;28;19924;-50
2021/09/23 16:50:38;;;;;;;;;;;24.40;66.20;;;;;;4990899;28;19929;-53
2021/09/23 16:53:45;;;;;;;;;;;24.20;66.50;;;;;;4992294;28;19937;-53
2021/09/23 16:56:49;;;;;;;;;;;24.10;66.80;;;;;;4991242;28;19997;-48
2021/09/23 16:59:52;;;;;;;;;;;23.90;67.20;;;;;;4990817;28;20175;-46
2021/09/23 17:03:02;;;;;;;;;;;23.80;67.70;;;;;;4991468;28;20400;-48
2021/09/23 17:06:06;;;;;;;;;;;23.60;67.90;;;;;;4991343;28;19921;-48
2021/09/23 17:09:10;;;;;;;;;;;23.40;68.20;;;;;;4990191;28;20057;-49
2021/09/23 17:12:14;;;;;;;;;;;23.30;68.10;;;;;;4990598;28;19925;-49
2021/09/23 17:15:20;;;;;;;;;;;23.10;68.60;;;;;;4991074;28;19936;-47
2021/09/23 17:18:24;;;;;;;;;;;23.00;69.00;;;;;;4989058;28;20332;-46
2021/09/23 17:21:31;;;;;;;;;;;22.80;69.10;;;;;;4990436;28;20388;-48
2021/09/23 17:24:34;;;;;;;;;;;22.70;69.50;;;;;;4991465;28;19921;-48
2021/09/23 17:27:38;;;;;;;;;;;22.60;70.10;;;;;;4990196;28;20285;-52
2021/09/23 17:30:42;;;;;;;;;;;22.50;70.30;;;;;;4990077;28;19929;-48
2021/09/23 17:33:47;;;;;;;;;;;22.50;70.40;;;;;;4991184;28;19944;-47
2021/09/23 17:36:51;;;;;;;;;;;22.40;70.30;;;;;;4988712;28;19924;-46
2021/09/23 17:39:55;;;;;;;;;;;22.40;70.30;;;;;;4989701;28;20360;-53
2021/09/23 17:43:00;;;;;;;;;;;22.40;70.30;;;;;;4990728;28;19924;-48
2021/09/23 17:46:04;;;;;;;;;;;22.30;70.30;;;;;;4989252;28;19925;-47
2021/09/23 17:49:08;;;;;;;;;;;22.30;70.10;;;;;;4989353;28;19998;-48
2021/09/23 17:52:13;;;;;;;;;;;22.20;70.20;;;;;;5000860;28;20388;-46
2021/09/23 17:55:19;;;;;;;;;;;22.10;70.40;;;;;;4989759;28;19921;-48
2021/09/23 17:58:26;;;;;;;;;;;22.00;70.80;;;;;;4989172;28;19941;-49
2021/09/23 18:01:30;;;;;;;;;;;22.00;70.90;;;;;;4989852;28;20327;-52
2021/09/23 18:04:34;;;;;;;;;;;21.90;71.20;;;;;;4990448;28;19930;-50
2021/09/23 18:07:43;;;;;;;;;;;21.70;71.90;;;;;;4989197;28;19924;-48